sensor_id;sensor_type;location;lat;lon;timestamp;temperature;humidity
49579;DHT22;35483;50.828;3.228;2023-06-26T00:02:05;22.30;69.00
49579;DHT22;35483;50.828;3.228;2023-06-26T00:04:30;22.20;69.00
49579;DHT22;35483;50.828;3.228;2023-06-26T00:06:56;22.20;69.20
49579;DHT22;35483;50.828;3.228;2023-06-26T00:09:22;22.20;69.30
49579;DHT22;35483;50.828;3.228;2023-06-26T00:11:48;22.20;69.40
49579;DHT22;35483;50.828;3.228;2023-06-26T00:14:14;22.20;69.20
49579;DHT22;35483;50.828;3.228;2023-06-26T00:16:40;22.20;69.10
49579;DHT22;35483;50.828;3.228;2023-06-26T00:19:08;22.20;69.20
49579;DHT22;35483;50.828;3.228;2023-06-26T00:21:33;22.20;69.40
49579;DHT22;35483;50.828;3.228;2023-06-26T00:23:59;22.10;69.40
49579;DHT22;35483;50.828;3.228;2023-06-26T00:26:25;22.10;69.40
49579;DHT22;35483;50.828;3.228;2023-06-26T00:28:51;22.10;69.60
49579;DHT22;35483;50.828;3.228;2023-06-26T00:31:17;22.00;69.60
49579;DHT22;35483;50.828;3.228;2023-06-26T00:33:43;22.00;69.50
49579;DHT22;35483;50.828;3.228;2023-06-26T00:36:08;22.00;70.40
49579;DHT22;35483;50.828;3.228;2023-06-26T00:38:35;22.00;69.90
49579;DHT22;35483;50.828;3.228;2023-06-26T00:41:00;21.90;69.80
49579;DHT22;35483;50.828;3.228;2023-06-26T00:43:26;21.90;69.90
49579;DHT22;35483;50.828;3.228;2023-06-26T00:45:52;21.90;70.10
49579;DHT22;35483;50.828;3.228;2023-06-26T00:48:18;21.90;70.00
49579;DHT22;35483;50.828;3.228;2023-06-26T00:50:45;21.80;70.00
49579;DHT22;35483;50.828;3.228;2023-06-26T00:53:11;21.80;70.20
49579;DHT22;35483;50.828;3.228;2023-06-26T00:55:37;21.80;70.20
49579;DHT22;35483;50.828;3.228;2023-06-26T00:58:03;21.80;70.10
49579;DHT22;35483;50.828;3.228;2023-06-26T01:00:29;21.70;70.20
49579;DHT22;35483;50.828;3.228;2023-06-26T01:02:55;21.70;70.20
49579;DHT22;35483;50.828;3.228;2023-06-26T01:05:25;21.60;70.20
49579;DHT22;35483;50.828;3.228;2023-06-26T01:07:52;21.50;70.20
49579;DHT22;35483;50.828;3.228;2023-06-26T01:10:19;21.50;70.40
49579;DHT22;35483;50.828;3.228;2023-06-26T01:12:45;21.50;70.50
49579;DHT22;35483;50.828;3.228;2023-06-26T01:15:11;21.30;70.50
49579;DHT22;35483;50.828;3.228;2023-06-26T01:17:37;21.30;70.50
49579;DHT22;35483;50.828;3.228;2023-06-26T01:20:05;21.30;70.70
49579;DHT22;35483;50.828;3.228;2023-06-26T01:25:46;21.20;70.90
49579;DHT22;35483;50.828;3.228;2023-06-26T01:28:17;21.20;74.80
49579;DHT22;35483;50.828;3.228;2023-06-26T01:30:45;21.20;70.70
49579;DHT22;35483;50.828;3.228;2023-06-26T01:33:13;21.10;71.00
49579;DHT22;35483;50.828;3.228;2023-06-26T01:35:39;21.10;71.10
49579;DHT22;35483;50.828;3.228;2023-06-26T01:38:32;21.00;71.50
49579;DHT22;35483;50.828;3.228;2023-06-26T01:40:58;21.00;74.40
49579;DHT22;35483;50.828;3.228;2023-06-26T01:43:29;20.80;71.40
49579;DHT22;35483;50.828;3.228;2023-06-26T01:46:10;20.70;71.60
49579;DHT22;35483;50.828;3.228;2023-06-26T01:49:23;20.70;73.10
49579;DHT22;35483;50.828;3.228;2023-06-26T01:52:06;20.60;73.80
49579;DHT22;35483;50.828;3.228;2023-06-26T01:54:39;20.50;76.60
49579;DHT22;35483;50.828;3.228;2023-06-26T01:57:08;20.40;72.40
49579;DHT22;35483;50.828;3.228;2023-06-26T01:59:37;20.40;71.90
49579;DHT22;35483;50.828;3.228;2023-06-26T02:02:07;20.40;72.00
49579;DHT22;35483;50.828;3.228;2023-06-26T02:04:33;20.30;72.50
49579;DHT22;35483;50.828;3.228;2023-06-26T02:07:00;20.30;71.90
49579;DHT22;35483;50.828;3.228;2023-06-26T02:09:25;20.30;71.90
49579;DHT22;35483;50.828;3.228;2023-06-26T02:11:51;20.20;71.60
49579;DHT22;35483;50.828;3.228;2023-06-26T02:14:17;20.20;71.70
49579;DHT22;35483;50.828;3.228;2023-06-26T02:16:43;20.20;71.90
49579;DHT22;35483;50.828;3.228;2023-06-26T02:19:09;20.10;71.90
49579;DHT22;35483;50.828;3.228;2023-06-26T02:21:35;20.00;72.00
49579;DHT22;35483;50.828;3.228;2023-06-26T02:24:01;20.00;72.40
49579;DHT22;35483;50.828;3.228;2023-06-26T02:26:27;20.00;72.00
49579;DHT22;35483;50.828;3.228;2023-06-26T02:28:53;20.00;72.10
49579;DHT22;35483;50.828;3.228;2023-06-26T02:31:19;19.90;72.00
49579;DHT22;35483;50.828;3.228;2023-06-26T02:33:45;19.90;72.10
49579;DHT22;35483;50.828;3.228;2023-06-26T02:36:11;19.90;72.00
49579;DHT22;35483;50.828;3.228;2023-06-26T02:38:37;19.80;72.10
49579;DHT22;35483;50.828;3.228;2023-06-26T02:41:03;19.70;72.20
49579;DHT22;35483;50.828;3.228;2023-06-26T02:43:29;19.70;72.40
49579;DHT22;35483;50.828;3.228;2023-06-26T02:45:55;19.60;72.40
49579;DHT22;35483;50.828;3.228;2023-06-26T02:48:21;19.60;72.30
49579;DHT22;35483;50.828;3.228;2023-06-26T02:50:47;19.60;72.70
49579;DHT22;35483;50.828;3.228;2023-06-26T02:53:13;19.60;72.60
49579;DHT22;35483;50.828;3.228;2023-06-26T02:55:39;19.60;72.90
49579;DHT22;35483;50.828;3.228;2023-06-26T02:58:04;19.50;72.70
49579;DHT22;35483;50.828;3.228;2023-06-26T03:00:30;19.50;72.30
49579;DHT22;35483;50.828;3.228;2023-06-26T03:02:56;19.40;72.30
49579;DHT22;35483;50.828;3.228;2023-06-26T03:05:22;19.40;72.20
49579;DHT22;35483;50.828;3.228;2023-06-26T03:07:49;19.40;72.10
49579;DHT22;35483;50.828;3.228;2023-06-26T03:10:15;19.40;72.20
49579;DHT22;35483;50.828;3.228;2023-06-26T03:12:41;19.30;72.10
49579;DHT22;35483;50.828;3.228;2023-06-26T03:15:07;19.30;72.30
49579;DHT22;35483;50.828;3.228;2023-06-26T03:17:33;19.30;72.10
49579;DHT22;35483;50.828;3.228;2023-06-26T03:19:59;19.20;72.20
49579;DHT22;35483;50.828;3.228;2023-06-26T03:22:25;19.20;72.00
49579;DHT22;35483;50.828;3.228;2023-06-26T03:24:51;19.20;72.40
49579;DHT22;35483;50.828;3.228;2023-06-26T03:27:17;19.20;72.10
49579;DHT22;35483;50.828;3.228;2023-06-26T03:29:42;19.10;72.00
49579;DHT22;35483;50.828;3.228;2023-06-26T03:32:08;19.10;72.00
49579;DHT22;35483;50.828;3.228;2023-06-26T03:34:35;19.10;72.20
49579;DHT22;35483;50.828;3.228;2023-06-26T03:37:01;19.00;72.00
49579;DHT22;35483;50.828;3.228;2023-06-26T03:39:27;19.00;72.20
49579;DHT22;35483;50.828;3.228;2023-06-26T03:41:53;18.90;72.20
49579;DHT22;35483;50.828;3.228;2023-06-26T03:44:22;19.00;72.10
49579;DHT22;35483;50.828;3.228;2023-06-26T03:46:48;18.90;72.40
49579;DHT22;35483;50.828;3.228;2023-06-26T03:49:13;18.90;71.90
49579;DHT22;35483;50.828;3.228;2023-06-26T03:51:39;18.90;71.90
49579;DHT22;35483;50.828;3.228;2023-06-26T03:54:05;18.90;71.80
49579;DHT22;35483;50.828;3.228;2023-06-26T03:56:31;18.90;71.70
49579;DHT22;35483;50.828;3.228;2023-06-26T03:58:57;18.90;71.80
49579;DHT22;35483;50.828;3.228;2023-06-26T04:01:23;18.80;71.70
49579;DHT22;35483;50.828;3.228;2023-06-26T04:03:49;18.90;71.70
49579;DHT22;35483;50.828;3.228;2023-06-26T04:06:15;18.90;71.60
49579;DHT22;35483;50.828;3.228;2023-06-26T04:08:40;18.90;72.30
49579;DHT22;35483;50.828;3.228;2023-06-26T04:11:06;18.90;71.60
49579;DHT22;35483;50.828;3.228;2023-06-26T04:13:32;18.90;71.50
49579;DHT22;35483;50.828;3.228;2023-06-26T04:15:58;18.90;71.70
49579;DHT22;35483;50.828;3.228;2023-06-26T04:18:24;18.90;71.50
49579;DHT22;35483;50.828;3.228;2023-06-26T04:21:11;18.90;71.70
49579;DHT22;35483;50.828;3.228;2023-06-26T04:23:38;18.90;74.30
49579;DHT22;35483;50.828;3.228;2023-06-26T04:26:05;18.90;71.50
49579;DHT22;35483;50.828;3.228;2023-06-26T04:28:32;19.00;71.30
49579;DHT22;35483;50.828;3.228;2023-06-26T04:30:58;19.00;71.20
49579;DHT22;35483;50.828;3.228;2023-06-26T04:33:25;19.00;71.20
49579;DHT22;35483;50.828;3.228;2023-06-26T04:35:54;19.00;71.20
49579;DHT22;35483;50.828;3.228;2023-06-26T04:38:20;19.00;71.20
49579;DHT22;35483;50.828;3.228;2023-06-26T04:40:47;19.00;71.30
49579;DHT22;35483;50.828;3.228;2023-06-26T04:43:13;19.00;71.00
49579;DHT22;35483;50.828;3.228;2023-06-26T04:45:39;19.10;70.90
49579;DHT22;35483;50.828;3.228;2023-06-26T04:48:05;19.00;70.90
49579;DHT22;35483;50.828;3.228;2023-06-26T04:50:31;19.10;70.80
49579;DHT22;35483;50.828;3.228;2023-06-26T04:52:59;19.10;70.80
49579;DHT22;35483;50.828;3.228;2023-06-26T04:55:25;19.10;70.80
49579;DHT22;35483;50.828;3.228;2023-06-26T04:57:51;19.10;70.70
49579;DHT22;35483;50.828;3.228;2023-06-26T05:00:17;19.20;70.60
49579;DHT22;35483;50.828;3.228;2023-06-26T05:02:43;19.20;71.10
49579;DHT22;35483;50.828;3.228;2023-06-26T05:05:09;19.30;71.10
49579;DHT22;35483;50.828;3.228;2023-06-26T05:07:36;19.30;70.40
49579;DHT22;35483;50.828;3.228;2023-06-26T05:10:02;19.30;70.40
49579;DHT22;35483;50.828;3.228;2023-06-26T05:12:28;19.40;70.40
49579;DHT22;35483;50.828;3.228;2023-06-26T05:14:54;19.40;70.30
49579;DHT22;35483;50.828;3.228;2023-06-26T05:17:20;19.40;70.90
49579;DHT22;35483;50.828;3.228;2023-06-26T05:19:45;19.40;70.30
49579;DHT22;35483;50.828;3.228;2023-06-26T05:22:13;19.50;70.50
49579;DHT22;35483;50.828;3.228;2023-06-26T05:24:39;19.50;70.30
49579;DHT22;35483;50.828;3.228;2023-06-26T05:27:06;19.60;70.40
49579;DHT22;35483;50.828;3.228;2023-06-26T05:29:32;19.60;70.40
49579;DHT22;35483;50.828;3.228;2023-06-26T05:31:58;19.90;70.30
49579;DHT22;35483;50.828;3.228;2023-06-26T05:34:26;20.90;68.90
49579;DHT22;35483;50.828;3.228;2023-06-26T05:36:58;23.20;65.60
49579;DHT22;35483;50.828;3.228;2023-06-26T05:39:25;25.50;62.20
49579;DHT22;35483;50.828;3.228;2023-06-26T05:41:51;27.30;59.80
49579;DHT22;35483;50.828;3.228;2023-06-26T05:44:17;28.70;58.00
49579;DHT22;35483;50.828;3.228;2023-06-26T05:46:45;28.60;57.60
49579;DHT22;35483;50.828;3.228;2023-06-26T05:49:11;27.00;59.40
49579;DHT22;35483;50.828;3.228;2023-06-26T05:51:37;26.20;61.30
49579;DHT22;35483;50.828;3.228;2023-06-26T05:54:03;26.20;61.40
49579;DHT22;35483;50.828;3.228;2023-06-26T05:56:30;26.50;60.80
49579;DHT22;35483;50.828;3.228;2023-06-26T05:58:57;27.00;60.00
49579;DHT22;35483;50.828;3.228;2023-06-26T06:01:24;27.30;59.70
49579;DHT22;35483;50.828;3.228;2023-06-26T06:03:50;28.50;58.40
49579;DHT22;35483;50.828;3.228;2023-06-26T06:06:16;29.40;57.30
49579;DHT22;35483;50.828;3.228;2023-06-26T06:08:42;30.30;56.30
49579;DHT22;35483;50.828;3.228;2023-06-26T06:11:08;30.60;55.80
49579;DHT22;35483;50.828;3.228;2023-06-26T06:13:34;31.40;55.20
49579;DHT22;35483;50.828;3.228;2023-06-26T06:16:00;31.50;55.00
49579;DHT22;35483;50.828;3.228;2023-06-26T06:18:26;31.60;54.90
49579;DHT22;35483;50.828;3.228;2023-06-26T06:20:53;30.50;55.30
49579;DHT22;35483;50.828;3.228;2023-06-26T06:23:18;28.50;57.70
49579;DHT22;35483;50.828;3.228;2023-06-26T06:25:44;26.60;60.30
49579;DHT22;35483;50.828;3.228;2023-06-26T06:28:10;25.10;62.40
49579;DHT22;35483;50.828;3.228;2023-06-26T06:30:35;24.10;64.00
49579;DHT22;35483;50.828;3.228;2023-06-26T06:33:02;23.30;65.10
49579;DHT22;35483;50.828;3.228;2023-06-26T06:35:28;22.80;65.80
49579;DHT22;35483;50.828;3.228;2023-06-26T06:37:54;22.50;66.40
49579;DHT22;35483;50.828;3.228;2023-06-26T06:40:20;22.30;66.80
49579;DHT22;35483;50.828;3.228;2023-06-26T06:42:48;22.10;67.10
49579;DHT22;35483;50.828;3.228;2023-06-26T06:45:13;22.00;67.30
49579;DHT22;35483;50.828;3.228;2023-06-26T06:47:39;21.90;67.50
49579;DHT22;35483;50.828;3.228;2023-06-26T06:50:05;21.80;67.60
49579;DHT22;35483;50.828;3.228;2023-06-26T06:52:38;21.70;67.80
49579;DHT22;35483;50.828;3.228;2023-06-26T06:55:06;21.70;68.10
49579;DHT22;35483;50.828;3.228;2023-06-26T06:57:38;21.60;68.00
49579;DHT22;35483;50.828;3.228;2023-06-26T07:00:05;21.60;68.30
49579;DHT22;35483;50.828;3.228;2023-06-26T07:02:34;21.60;68.00
49579;DHT22;35483;50.828;3.228;2023-06-26T07:05:01;21.70;68.20
49579;DHT22;35483;50.828;3.228;2023-06-26T07:07:30;21.70;68.20
49579;DHT22;35483;50.828;3.228;2023-06-26T07:10:00;21.70;68.30
49579;DHT22;35483;50.828;3.228;2023-06-26T07:12:26;21.70;68.40
49579;DHT22;35483;50.828;3.228;2023-06-26T07:14:52;21.70;68.30
49579;DHT22;35483;50.828;3.228;2023-06-26T07:17:19;21.70;68.30
49579;DHT22;35483;50.828;3.228;2023-06-26T07:19:46;21.70;68.40
49579;DHT22;35483;50.828;3.228;2023-06-26T07:22:12;21.70;68.40
49579;DHT22;35483;50.828;3.228;2023-06-26T07:24:38;21.70;68.50
49579;DHT22;35483;50.828;3.228;2023-06-26T07:27:04;21.70;68.50
49579;DHT22;35483;50.828;3.228;2023-06-26T07:29:29;21.70;68.60
49579;DHT22;35483;50.828;3.228;2023-06-26T07:31:55;21.80;68.40
49579;DHT22;35483;50.828;3.228;2023-06-26T07:34:21;21.80;68.60
49579;DHT22;35483;50.828;3.228;2023-06-26T07:36:47;21.80;68.60
49579;DHT22;35483;50.828;3.228;2023-06-26T07:39:13;21.80;68.50
49579;DHT22;35483;50.828;3.228;2023-06-26T07:41:38;21.90;68.70
49579;DHT22;35483;50.828;3.228;2023-06-26T07:44:04;21.90;68.60
49579;DHT22;35483;50.828;3.228;2023-06-26T07:46:30;22.00;68.50
49579;DHT22;35483;50.828;3.228;2023-06-26T07:48:56;22.00;68.60
49579;DHT22;35483;50.828;3.228;2023-06-26T07:51:21;22.10;69.10
49579;DHT22;35483;50.828;3.228;2023-06-26T07:53:47;22.10;68.50
49579;DHT22;35483;50.828;3.228;2023-06-26T07:56:14;22.10;68.60
49579;DHT22;35483;50.828;3.228;2023-06-26T07:58:40;22.20;68.70
49579;DHT22;35483;50.828;3.228;2023-06-26T08:01:06;22.20;68.60
49579;DHT22;35483;50.828;3.228;2023-06-26T08:03:31;22.30;68.40
49579;DHT22;35483;50.828;3.228;2023-06-26T08:05:57;22.40;68.30
49579;DHT22;35483;50.828;3.228;2023-06-26T08:08:23;22.50;68.30
49579;DHT22;35483;50.828;3.228;2023-06-26T08:10:49;22.50;68.40
49579;DHT22;35483;50.828;3.228;2023-06-26T08:13:14;22.50;68.30
49579;DHT22;35483;50.828;3.228;2023-06-26T08:15:40;22.60;68.40
49579;DHT22;35483;50.828;3.228;2023-06-26T08:18:06;22.60;68.30
49579;DHT22;35483;50.828;3.228;2023-06-26T08:20:32;22.70;68.10
49579;DHT22;35483;50.828;3.228;2023-06-26T08:22:57;22.70;68.10
49579;DHT22;35483;50.828;3.228;2023-06-26T08:25:23;22.70;68.20
49579;DHT22;35483;50.828;3.228;2023-06-26T08:27:49;22.70;68.20
49579;DHT22;35483;50.828;3.228;2023-06-26T08:30:18;22.70;68.20
49579;DHT22;35483;50.828;3.228;2023-06-26T08:32:43;22.70;68.20
49579;DHT22;35483;50.828;3.228;2023-06-26T08:35:09;22.80;68.10
49579;DHT22;35483;50.828;3.228;2023-06-26T08:37:35;22.80;68.00
49579;DHT22;35483;50.828;3.228;2023-06-26T08:40:01;22.90;67.90
49579;DHT22;35483;50.828;3.228;2023-06-26T08:42:27;22.90;67.90
49579;DHT22;35483;50.828;3.228;2023-06-26T08:44:53;23.00;67.80
49579;DHT22;35483;50.828;3.228;2023-06-26T08:47:19;23.00;67.70
49579;DHT22;35483;50.828;3.228;2023-06-26T08:52:59;22.90;67.70
49579;DHT22;35483;50.828;3.228;2023-06-26T08:55:31;22.90;67.60
49579;DHT22;35483;50.828;3.228;2023-06-26T08:57:59;23.00;67.80
49579;DHT22;35483;50.828;3.228;2023-06-26T09:00:26;23.10;67.80
49579;DHT22;35483;50.828;3.228;2023-06-26T09:02:51;23.20;67.50
49579;DHT22;35483;50.828;3.228;2023-06-26T09:05:17;23.20;67.30
49579;DHT22;35483;50.828;3.228;2023-06-26T09:07:44;23.10;67.40
49579;DHT22;35483;50.828;3.228;2023-06-26T09:10:10;23.10;67.30
49579;DHT22;35483;50.828;3.228;2023-06-26T09:12:37;23.10;67.40
49579;DHT22;35483;50.828;3.228;2023-06-26T09:15:05;23.10;67.00
49579;DHT22;35483;50.828;3.228;2023-06-26T09:17:39;23.10;66.90
49579;DHT22;35483;50.828;3.228;2023-06-26T09:20:06;23.10;66.80
49579;DHT22;35483;50.828;3.228;2023-06-26T09:22:36;23.10;67.20
49579;DHT22;35483;50.828;3.228;2023-06-26T09:25:03;23.10;67.10
49579;DHT22;35483;50.828;3.228;2023-06-26T09:27:29;23.20;67.00
49579;DHT22;35483;50.828;3.228;2023-06-26T09:29:56;23.20;67.00
49579;DHT22;35483;50.828;3.228;2023-06-26T09:32:27;23.20;67.00
49579;DHT22;35483;50.828;3.228;2023-06-26T09:34:56;23.20;66.80
49579;DHT22;35483;50.828;3.228;2023-06-26T09:37:22;23.30;67.10
49579;DHT22;35483;50.828;3.228;2023-06-26T09:39:51;23.40;66.90
49579;DHT22;35483;50.828;3.228;2023-06-26T09:42:17;23.40;66.90
49579;DHT22;35483;50.828;3.228;2023-06-26T09:44:45;23.50;67.10
49579;DHT22;35483;50.828;3.228;2023-06-26T09:47:11;23.60;66.60
49579;DHT22;35483;50.828;3.228;2023-06-26T09:49:40;23.80;66.50
49579;DHT22;35483;50.828;3.228;2023-06-26T09:52:06;24.00;66.40
49579;DHT22;35483;50.828;3.228;2023-06-26T09:54:33;24.10;66.10
49579;DHT22;35483;50.828;3.228;2023-06-26T09:57:12;24.30;66.10
49579;DHT22;35483;50.828;3.228;2023-06-26T09:59:42;24.40;64.20
49579;DHT22;35483;50.828;3.228;2023-06-26T10:02:09;24.50;65.60
49579;DHT22;35483;50.828;3.228;2023-06-26T10:04:36;24.60;65.70
49579;DHT22;35483;50.828;3.228;2023-06-26T10:07:15;24.70;65.60
49579;DHT22;35483;50.828;3.228;2023-06-26T10:09:44;24.80;65.00
49579;DHT22;35483;50.828;3.228;2023-06-26T10:12:29;24.70;65.50
49579;DHT22;35483;50.828;3.228;2023-06-26T10:14:58;24.70;65.50
49579;DHT22;35483;50.828;3.228;2023-06-26T10:17:28;24.60;65.30
49579;DHT22;35483;50.828;3.228;2023-06-26T10:19:58;24.60;65.60
49579;DHT22;35483;50.828;3.228;2023-06-26T10:22:29;24.50;65.60
49579;DHT22;35483;50.828;3.228;2023-06-26T10:24:58;24.50;65.50
49579;DHT22;35483;50.828;3.228;2023-06-26T10:27:29;24.50;65.40
49579;DHT22;35483;50.828;3.228;2023-06-26T10:30:00;24.50;65.30
49579;DHT22;35483;50.828;3.228;2023-06-26T10:32:29;24.60;65.20
49579;DHT22;35483;50.828;3.228;2023-06-26T10:34:56;24.70;64.60
49579;DHT22;35483;50.828;3.228;2023-06-26T10:37:44;24.80;65.00
49579;DHT22;35483;50.828;3.228;2023-06-26T10:40:11;24.90;62.90
49579;DHT22;35483;50.828;3.228;2023-06-26T10:42:39;24.90;65.00
49579;DHT22;35483;50.828;3.228;2023-06-26T10:45:15;25.00;64.70
49579;DHT22;35483;50.828;3.228;2023-06-26T10:47:42;25.20;64.50
49579;DHT22;35483;50.828;3.228;2023-06-26T10:50:17;25.30;64.40
49579;DHT22;35483;50.828;3.228;2023-06-26T10:53:09;25.30;63.60
49579;DHT22;35483;50.828;3.228;2023-06-26T10:55:41;25.10;64.00
49579;DHT22;35483;50.828;3.228;2023-06-26T10:58:30;25.00;64.10
49579;DHT22;35483;50.828;3.228;2023-06-26T11:03:37;24.70;63.70
49579;DHT22;35483;50.828;3.228;2023-06-26T11:06:14;24.50;64.20
49579;DHT22;35483;50.828;3.228;2023-06-26T11:09:00;24.40;61.70
49579;DHT22;35483;50.828;3.228;2023-06-26T11:14:18;24.60;63.90
49579;DHT22;35483;50.828;3.228;2023-06-26T11:16:45;24.70;64.00
49579;DHT22;35483;50.828;3.228;2023-06-26T11:19:11;24.70;63.90
49579;DHT22;35483;50.828;3.228;2023-06-26T11:21:40;24.70;63.90
49579;DHT22;35483;50.828;3.228;2023-06-26T11:24:08;24.70;64.10
49579;DHT22;35483;50.828;3.228;2023-06-26T11:26:42;24.70;64.10
49579;DHT22;35483;50.828;3.228;2023-06-26T11:29:09;24.70;62.20
49579;DHT22;35483;50.828;3.228;2023-06-26T11:31:37;24.80;64.00
49579;DHT22;35483;50.828;3.228;2023-06-26T11:34:04;24.90;63.70
49579;DHT22;35483;50.828;3.228;2023-06-26T11:36:31;25.00;63.60
49579;DHT22;35483;50.828;3.228;2023-06-26T11:39:00;25.10;63.80
49579;DHT22;35483;50.828;3.228;2023-06-26T11:41:30;25.30;63.20
49579;DHT22;35483;50.828;3.228;2023-06-26T11:44:02;25.30;63.30
49579;DHT22;35483;50.828;3.228;2023-06-26T11:46:29;25.40;63.40
49579;DHT22;35483;50.828;3.228;2023-06-26T11:48:56;25.50;63.50
49579;DHT22;35483;50.828;3.228;2023-06-26T11:51:22;25.50;63.20
49579;DHT22;35483;50.828;3.228;2023-06-26T11:53:48;25.60;63.20
49579;DHT22;35483;50.828;3.228;2023-06-26T11:56:16;25.70;63.30
49579;DHT22;35483;50.828;3.228;2023-06-26T11:59:02;25.70;63.70
49579;DHT22;35483;50.828;3.228;2023-06-26T12:01:42;25.60;62.50
49579;DHT22;35483;50.828;3.228;2023-06-26T12:04:13;25.50;60.10
49579;DHT22;35483;50.828;3.228;2023-06-26T12:06:42;25.40;63.20
49579;DHT22;35483;50.828;3.228;2023-06-26T12:09:09;25.40;63.40
49579;DHT22;35483;50.828;3.228;2023-06-26T12:11:41;25.40;63.20
49579;DHT22;35483;50.828;3.228;2023-06-26T12:14:08;25.40;60.60
49579;DHT22;35483;50.828;3.228;2023-06-26T12:16:36;25.40;63.20
49579;DHT22;35483;50.828;3.228;2023-06-26T12:19:04;25.40;63.00
49579;DHT22;35483;50.828;3.228;2023-06-26T12:24:19;25.50;57.90
49579;DHT22;35483;50.828;3.228;2023-06-26T12:26:49;25.60;61.70
49579;DHT22;35483;50.828;3.228;2023-06-26T12:29:17;25.70;62.30
49579;DHT22;35483;50.828;3.228;2023-06-26T12:31:51;25.80;62.60
49579;DHT22;35483;50.828;3.228;2023-06-26T12:34:26;25.80;61.70
49579;DHT22;35483;50.828;3.228;2023-06-26T12:36:52;25.80;62.00
49579;DHT22;35483;50.828;3.228;2023-06-26T12:39:19;25.80;62.10
49579;DHT22;35483;50.828;3.228;2023-06-26T12:41:47;25.60;62.30
49579;DHT22;35483;50.828;3.228;2023-06-26T12:44:24;25.60;62.30
49579;DHT22;35483;50.828;3.228;2023-06-26T12:46:56;25.50;61.60
49579;DHT22;35483;50.828;3.228;2023-06-26T12:49:39;25.50;62.00
49579;DHT22;35483;50.828;3.228;2023-06-26T12:52:07;25.60;61.80
49579;DHT22;35483;50.828;3.228;2023-06-26T12:54:34;25.60;62.40
49579;DHT22;35483;50.828;3.228;2023-06-26T12:57:00;25.50;62.60
49579;DHT22;35483;50.828;3.228;2023-06-26T12:59:26;25.40;62.70
49579;DHT22;35483;50.828;3.228;2023-06-26T13:01:52;25.40;62.80
49579;DHT22;35483;50.828;3.228;2023-06-26T13:04:19;25.50;62.70
49579;DHT22;35483;50.828;3.228;2023-06-26T13:06:45;25.60;62.50
49579;DHT22;35483;50.828;3.228;2023-06-26T13:09:12;25.70;62.20
49579;DHT22;35483;50.828;3.228;2023-06-26T13:11:38;25.70;62.20
49579;DHT22;35483;50.828;3.228;2023-06-26T13:14:04;25.70;62.30
49579;DHT22;35483;50.828;3.228;2023-06-26T13:16:30;25.80;62.10
49579;DHT22;35483;50.828;3.228;2023-06-26T13:18:57;25.80;62.20
49579;DHT22;35483;50.828;3.228;2023-06-26T13:21:23;25.80;62.30
49579;DHT22;35483;50.828;3.228;2023-06-26T13:23:49;25.50;62.40
49579;DHT22;35483;50.828;3.228;2023-06-26T13:26:15;25.50;62.80
49579;DHT22;35483;50.828;3.228;2023-06-26T13:28:40;25.40;63.00
49579;DHT22;35483;50.828;3.228;2023-06-26T13:31:06;25.50;63.00
49579;DHT22;35483;50.828;3.228;2023-06-26T13:33:32;25.50;62.90
49579;DHT22;35483;50.828;3.228;2023-06-26T13:35:58;25.50;62.60
49579;DHT22;35483;50.828;3.228;2023-06-26T13:38:24;25.50;62.70
49579;DHT22;35483;50.828;3.228;2023-06-26T13:40:56;25.60;62.70
49579;DHT22;35483;50.828;3.228;2023-06-26T13:43:28;25.80;62.60
49579;DHT22;35483;50.828;3.228;2023-06-26T13:45:55;25.80;62.40
49579;DHT22;35483;50.828;3.228;2023-06-26T13:48:21;25.80;62.40
49579;DHT22;35483;50.828;3.228;2023-06-26T13:50:49;25.80;62.40
49579;DHT22;35483;50.828;3.228;2023-06-26T13:53:15;25.70;62.10
49579;DHT22;35483;50.828;3.228;2023-06-26T13:55:42;25.60;62.50
49579;DHT22;35483;50.828;3.228;2023-06-26T13:58:09;25.70;62.50
49579;DHT22;35483;50.828;3.228;2023-06-26T14:00:35;25.80;62.30
49579;DHT22;35483;50.828;3.228;2023-06-26T14:03:02;25.80;62.20
49579;DHT22;35483;50.828;3.228;2023-06-26T14:05:32;25.90;62.80
49579;DHT22;35483;50.828;3.228;2023-06-26T14:07:58;25.90;61.80
49579;DHT22;35483;50.828;3.228;2023-06-26T14:10:24;25.80;62.20
49579;DHT22;35483;50.828;3.228;2023-06-26T14:12:50;25.90;62.20
49579;DHT22;35483;50.828;3.228;2023-06-26T14:15:16;25.90;62.10
49579;DHT22;35483;50.828;3.228;2023-06-26T14:17:42;25.90;61.90
49579;DHT22;35483;50.828;3.228;2023-06-26T14:20:08;25.90;61.80
49579;DHT22;35483;50.828;3.228;2023-06-26T14:22:45;26.00;61.90
49579;DHT22;35483;50.828;3.228;2023-06-26T14:25:11;26.10;62.00
49579;DHT22;35483;50.828;3.228;2023-06-26T14:27:38;26.10;61.90
49579;DHT22;35483;50.828;3.228;2023-06-26T14:30:05;26.00;61.80
49579;DHT22;35483;50.828;3.228;2023-06-26T14:32:32;25.90;61.90
49579;DHT22;35483;50.828;3.228;2023-06-26T14:34:58;25.80;61.90
49579;DHT22;35483;50.828;3.228;2023-06-26T14:37:24;25.80;62.10
49579;DHT22;35483;50.828;3.228;2023-06-26T14:39:51;25.80;62.00
49579;DHT22;35483;50.828;3.228;2023-06-26T14:42:17;25.80;62.00
49579;DHT22;35483;50.828;3.228;2023-06-26T14:44:43;25.70;62.00
49579;DHT22;35483;50.828;3.228;2023-06-26T14:47:08;25.80;62.20
49579;DHT22;35483;50.828;3.228;2023-06-26T14:49:34;25.70;62.10
49579;DHT22;35483;50.828;3.228;2023-06-26T14:52:00;25.70;62.10
49579;DHT22;35483;50.828;3.228;2023-06-26T14:54:26;25.70;61.60
49579;DHT22;35483;50.828;3.228;2023-06-26T14:56:51;25.70;62.20
49579;DHT22;35483;50.828;3.228;2023-06-26T14:59:17;25.60;62.40
49579;DHT22;35483;50.828;3.228;2023-06-26T15:01:43;25.80;62.30
49579;DHT22;35483;50.828;3.228;2023-06-26T15:04:08;25.90;62.30
49579;DHT22;35483;50.828;3.228;2023-06-26T15:06:35;26.00;62.10
49579;DHT22;35483;50.828;3.228;2023-06-26T15:09:01;26.10;62.10
49579;DHT22;35483;50.828;3.228;2023-06-26T15:11:28;26.00;62.10
49579;DHT22;35483;50.828;3.228;2023-06-26T15:13:55;26.00;62.10
49579;DHT22;35483;50.828;3.228;2023-06-26T15:16:21;25.80;62.10
49579;DHT22;35483;50.828;3.228;2023-06-26T15:18:46;25.50;62.50
49579;DHT22;35483;50.828;3.228;2023-06-26T15:21:12;25.50;62.70
49579;DHT22;35483;50.828;3.228;2023-06-26T15:23:38;25.50;62.80
49579;DHT22;35483;50.828;3.228;2023-06-26T15:26:04;25.50;62.80
49579;DHT22;35483;50.828;3.228;2023-06-26T15:28:30;25.50;62.60
49579;DHT22;35483;50.828;3.228;2023-06-26T15:30:56;25.50;62.70
49579;DHT22;35483;50.828;3.228;2023-06-26T15:33:22;25.60;62.50
49579;DHT22;35483;50.828;3.228;2023-06-26T15:35:48;25.60;62.70
49579;DHT22;35483;50.828;3.228;2023-06-26T15:38:13;25.70;62.60
49579;DHT22;35483;50.828;3.228;2023-06-26T15:40:39;25.70;62.50
49579;DHT22;35483;50.828;3.228;2023-06-26T15:43:05;25.80;62.40
49579;DHT22;35483;50.828;3.228;2023-06-26T15:45:31;25.70;62.10
49579;DHT22;35483;50.828;3.228;2023-06-26T15:47:56;25.60;62.10